| time (UTC) | temp F | wind direction | speed MPH | gust MPH | rain 1hr in | rain 24hr in | rain mn in | humidity % | barometer mb |
| 20260507144530 | 56 | 147 | 2.0 | 4.0 | 0.00 | 0.57 | 0.01 | 57 | 1008.9 |
| 20260507143031 | 58 | 17 | 1.0 | 4.0 | 0.00 | 0.57 | 0.01 | 58 | 1008.7 |
| 20260507141525 | 57 | 42 | 1.0 | 4.0 | 0.00 | 0.57 | 0.01 | 56 | 1008.8 |
| 20260507140029 | 58 | 338 | 1.0 | 5.0 | 0.00 | 0.57 | 0.01 | 58 | 1008.8 |
| 20260507134527 | 56 | 296 | 1.0 | 5.0 | 0.00 | 0.61 | 0.01 | 60 | 1008.6 |
| 20260507133018 | 55 | 242 | 2.0 | 3.0 | 0.00 | 0.61 | 0.01 | 63 | 1008.7 |
| 20260507131516 | 54 | 331 | 2.0 | 4.0 | 0.00 | 0.61 | 0.01 | 66 | 1009.0 |
| 20260507130011 | 53 | 311 | 2.0 | 5.0 | 0.00 | 0.61 | 0.01 | 69 | 1009.0 |
| 20260507124510 | 51 | 177 | 1.0 | 5.0 | 0.00 | 0.66 | 0.01 | 73 | 1009.1 |
| 20260507123009 | 50 | 315 | 1.0 | 4.0 | 0.00 | 0.66 | 0.01 | 78 | 1009.1 |
| 20260507121506 | 49 | 355 | 1.0 | 4.0 | 0.00 | 0.66 | 0.01 | 82 | 1009.3 |
| 20260507120007 | 49 | 206 | 0.0 | 3.0 | 0.00 | 0.66 | 0.01 | 82 | 1009.2 |
| 20260507114506 | 48 | 105 | 0.0 | 3.0 | 0.00 | 0.67 | 0.01 | 83 | 1009.1 |
| 20260507113007 | 48 | 282 | 0.0 | 0.0 | 0.00 | 0.67 | 0.01 | 85 | 1009.0 |
| 20260507111503 | 47 | 282 | 0.0 | 1.0 | 0.00 | 0.67 | 0.01 | 86 | 1008.9 |
| 20260507110002 | 47 | 282 | 1.0 | 2.0 | 0.00 | 0.67 | 0.01 | 85 | 1008.9 |
| 20260507104502 | 47 | 278 | 0.0 | 3.0 | 0.00 | 0.67 | 0.01 | 86 | 1008.8 |
| 20260507103100 | 47 | 176 | 0.0 | 0.0 | 0.00 | 0.67 | 0.01 | 88 | 1008.4 |
| 20260507101612 | 47 | 176 | 0.0 | 2.0 | 0.00 | 0.67 | 0.01 | 88 | 1008.5 |
| 20260507094604 | 47 | 351 | 0.0 | 0.0 | 0.00 | 0.67 | 0.01 | 89 | 1008.7 |
| 20260507093055 | 48 | 351 | 0.0 | 2.0 | 0.00 | 0.67 | 0.01 | 88 | 1008.7 |
| 20260507091553 | 48 | 130 | 0.0 | 1.0 | 0.01 | 0.67 | 0.01 | 90 | 1008.7 |
| 20260507090053 | 48 | 128 | 1.0 | 3.0 | 0.01 | 0.67 | 0.01 | 90 | 1008.8 |
| 20260507084557 | 49 | 129 | 0.0 | 1.0 | 0.01 | 0.67 | 0.01 | 90 | 1008.3 |
| 20260507083050 | 49 | 129 | 0.0 | 0.0 | 0.01 | 0.67 | 0.01 | 90 | 1008.3 |
| 20260507081548 | 49 | 129 | 0.0 | 0.0 | 0.00 | 0.66 | 0.00 | 89 | 1008.2 |
| 20260507074545 | 50 | 125 | 0.0 | 3.0 | 0.00 | 0.66 | 0.00 | 88 | 1008.2 |
| 20260507073048 | 50 | 59 | 0.0 | 0.0 | 0.00 | 0.66 | 0.00 | 88 | 1008.1 |
| 20260507071542 | 50 | 59 | 0.0 | 0.0 | 0.00 | 0.66 | 0.00 | 88 | 1007.8 |
| 20260507070042 | 50 | 24 | 0.0 | 0.0 | 0.00 | 0.66 | 0.00 | 89 | 1007.9 |
| 20260507064541 | 50 | 24 | 0.0 | 1.0 | 0.00 | 0.66 | 0.00 | 89 | 1007.6 |
| 20260507063040 | 50 | 24 | 0.0 | 2.0 | 0.00 | 0.69 | 0.00 | 90 | 1007.6 |
| 20260507061538 | 51 | 24 | 0.0 | 2.0 | 0.01 | 0.69 | 0.00 | 89 | 1007.6 |
| 20260507060036 | 51 | 323 | 0.0 | 2.0 | 0.01 | 0.69 | 0.00 | 90 | 1007.6 |
| 20260507054538 | 51 | 256 | 0.0 | 2.0 | 0.01 | 0.69 | 0.69 | 91 | 1008.0 |
| 20260507053034 | 51 | 161 | 0.0 | 2.0 | 0.01 | 0.69 | 0.69 | 91 | 1008.2 |
| 20260507051533 | 52 | 162 | 0.0 | 2.0 | 0.01 | 0.69 | 0.69 | 90 | 1008.2 |
| 20260507050034 | 52 | 163 | 1.0 | 2.0 | 0.01 | 0.68 | 0.68 | 90 | 1008.1 |
| 20260507044530 | 53 | 267 | 1.0 | 3.0 | 0.03 | 0.68 | 0.68 | 89 | 1007.8 |
| 20260507043028 | 54 | 331 | 0.0 | 2.0 | 0.03 | 0.68 | 0.68 | 90 | 1007.8 |
| 20260507041525 | 55 | 21 | 1.0 | 3.0 | 0.03 | 0.68 | 0.68 | 91 | 1007.9 |
| 20260507040024 | 55 | 9 | 0.0 | 3.0 | 0.03 | 0.67 | 0.67 | 90 | 1007.9 |
| 20260507034522 | 56 | 304 | 1.0 | 4.0 | 0.01 | 0.65 | 0.65 | 90 | 1007.3 |
| 20260507033023 | 57 | 9 | 1.0 | 2.0 | 0.01 | 0.65 | 0.65 | 91 | 1006.9 |
| 20260507031517 | 58 | 348 | 1.0 | 5.0 | 0.01 | 0.65 | 0.65 | 90 | 1006.8 |
| 20260507030019 | 59 | 46 | 1.0 | 5.0 | 0.00 | 0.64 | 0.64 | 93 | 1006.7 |
| 20260507024516 | 59 | 28 | 1.0 | 3.0 | 0.00 | 0.64 | 0.64 | 93 | 1006.6 |
| 20260507023015 | 59 | 144 | 0.0 | 2.0 | 0.00 | 0.64 | 0.64 | 92 | 1006.6 |
| 20260507021514 | 58 | 144 | 0.0 | 2.0 | 0.00 | 0.64 | 0.64 | 92 | 1006.3 |
| 20260507020014 | 58 | 267 | 0.0 | 4.0 | 0.00 | 0.64 | 0.64 | 92 | 1006.4 |
| 20260507014521 | 58 | 9 | 1.0 | 4.0 | 0.00 | 0.64 | 0.64 | 92 | 1006.4 |
| 20260507013032 | 58 | 263 | 0.0 | 4.0 | 0.00 | 0.64 | 0.64 | 92 | 1006.5 |
| 20260507011514 | 58 | 176 | 0.0 | 3.0 | 0.00 | 0.64 | 0.64 | 92 | 1006.5 |
| 20260507010023 | 59 | 329 | 0.0 | 3.0 | 0.00 | 0.64 | 0.64 | 92 | 1006.6 |
| 20260507004512 | 59 | 360 | 1.0 | 4.0 | 0.00 | 0.82 | 0.64 | 92 | 1006.6 |
| 20260507003011 | 59 | 9 | 1.0 | 5.0 | 0.00 | 0.82 | 0.64 | 91 | 1006.3 |
| 20260507001510 | 59 | 351 | 1.0 | 3.0 | 0.01 | 0.82 | 0.64 | 91 | 1006.4 |
| 20260507000011 | 59 | 87 | 0.0 | 5.0 | 0.01 | 0.82 | 0.64 | 91 | 1006.3 |
| 20260506234514 | 59 | 30 | 1.0 | 6.0 | 0.01 | 1.06 | 0.64 | 91 | 1006.3 |
| 20260506233010 | 59 | 75 | 0.0 | 4.0 | 0.01 | 1.06 | 0.64 | 91 | 1006.1 |
| 20260506231508 | 59 | 147 | 2.0 | 5.0 | 0.01 | 1.06 | 0.64 | 91 | 1006.2 |
| 20260506230009 | 59 | 96 | 0.0 | 5.0 | 0.00 | 1.05 | 0.63 | 91 | 1006.3 |
| 20260506224506 | 59 | 110 | 1.0 | 4.0 | 0.01 | 1.32 | 0.63 | 90 | 1006.5 |
| 20260506223004 | 59 | 350 | 1.0 | 6.0 | 0.01 | 1.32 | 0.63 | 90 | 1006.4 |
| 20260506221502 | 59 | 97 | 2.0 | 8.0 | 0.01 | 1.32 | 0.63 | 90 | 1006.6 |
| 20260506220000 | 59 | 338 | 1.0 | 4.0 | 0.01 | 1.32 | 0.63 | 89 | 1006.5 |
| 20260506214600 | 59 | 13 | 1.0 | 8.0 | 0.02 | 1.31 | 0.62 | 88 | 1006.6 |
| 20260506213122 | 60 | 25 | 1.0 | 5.0 | 0.03 | 1.87 | 0.62 | 88 | 1006.7 |
| 20260506211558 | 60 | 125 | 1.0 | 8.0 | 0.03 | 1.87 | 0.62 | 89 | 1007.0 |
| 20260506204556 | 60 | 333 | 3.0 | 9.0 | 0.01 | 1.85 | 0.60 | 87 | 1007.5 |
| 20260506203055 | 61 | 55 | 1.0 | 5.0 | 0.00 | 2.00 | 0.59 | 86 | 1007.3 |
| 20260506201553 | 62 | 145 | 1.0 | 7.0 | 0.00 | 2.00 | 0.59 | 85 | 1007.3 |
| 20260506194552 | 63 | 163 | 1.0 | 4.0 | 0.00 | 2.00 | 0.59 | 83 | 1007.2 |
| 20260506193051 | 63 | 127 | 0.0 | 5.0 | 0.00 | 2.00 | 0.59 | 81 | 1007.2 |
| 20260506191548 | 64 | 63 | 1.0 | 6.0 | 0.00 | 2.00 | 0.59 | 78 | 1007.0 |
| 20260506184551 | 67 | 109 | 1.0 | 3.0 | 0.05 | 2.00 | 0.59 | 72 | 1007.3 |
| 20260506183054 | 68 | 233 | 2.0 | 7.0 | 0.07 | 2.00 | 0.59 | 67 | 1007.3 |
| 20260506181611 | 69 | 210 | 1.0 | 3.0 | 0.07 | 2.00 | 0.59 | 64 | 1007.4 |
| 20260506174543 | 71 | 306 | 4.0 | 12.0 | 0.10 | 1.97 | 0.55 | 53 | 1007.3 |
| 20260506173055 | 72 | 30 | 2.0 | 7.0 | 0.09 | 1.94 | 0.52 | 54 | 1007.3 |
| 20260506171540 | 72 | 76 | 1.0 | 10.0 | 0.09 | 1.94 | 0.52 | 55 | 1007.3 |
| 20260506164538 | 71 | 163 | 3.0 | 11.0 | 0.02 | 1.87 | 0.45 | 58 | 1007.9 |
| 20260506163037 | 71 | 60 | 1.0 | 8.0 | 0.02 | 1.85 | 0.43 | 58 | 1008.1 |
| 20260506161532 | 71 | 14 | 1.0 | 4.0 | 0.04 | 1.85 | 0.43 | 58 | 1008.2 |
| 20260506154532 | 69 | 164 | 2.0 | 8.0 | 0.13 | 1.85 | 0.43 | 60 | 1008.9 |
| 20260506153029 | 69 | 326 | 2.0 | 8.0 | 0.15 | 1.83 | 0.41 | 60 | 1009.2 |
| 20260506151529 | 70 | 32 | 1.0 | 9.0 | 0.23 | 1.81 | 0.39 | 60 | 1009.3 |